Time;durP1;ratioP1;P1;durP2;ratioP2;P2;SDS_P1;SDS_P2;PMS_P1;PMS_P2;Temp;Humidity;BMP_temperature;BMP_pressure;BME280_temperature;BME280_humidity;BME280_pressure;Samples;Min_cycle;Max_cycle;Signal;HPM_P1;HPM_P2
2021/11/18 00:00:55;;;;;;;9.949999;7.949999;;;;;;;4.89;100;96254.16;;;;
2021/11/18 00:02:01;;;;;;;9.949999;7.949999;;;;;;;4.89;100;96254.16;;;;
2021/11/18 00:03:02;;;;;;;9.949999;7.949999;;;;;;;4.89;100;96254.16;;;;
2021/11/18 00:04:04;;;;;;;9.949999;7.949999;;;;;;;4.89;100;96254.16;;;;
2021/11/18 00:05:06;;;;;;;9.949999;7.949999;;;;;;;4.89;100;96254.16;;;;
2021/11/18 00:06:08;;;;;;;9.949999;7.949999;;;;;;;4.89;100;96254.16;;;;
2021/11/18 00:07:09;;;;;;;9.949999;7.949999;;;;;;;4.89;100;96254.16;;;;
2021/11/18 00:08:09;;;;;;;9.949999;7.949999;;;;;;;4.89;100;96254.16;;;;
2021/11/18 00:09:10;;;;;;;9.949999;7.949999;;;;;;;4.89;100;96254.16;;;;
2021/11/18 00:10:11;;;;;;;10.1;8.049999;;;;;;;4.87;100;96257.62;;;;
2021/11/18 00:11:14;;;;;;;10.1;8.049999;;;;;;;4.87;100;96257.62;;;;
2021/11/18 00:12:19;;;;;;;10.1;8.049999;;;;;;;4.87;100;96257.62;;;;
2021/11/18 00:13:19;;;;;;;10.1;8.049999;;;;;;;4.87;100;96257.62;;;;
2021/11/18 00:14:23;;;;;;;10.1;8.049999;;;;;;;4.87;100;96257.62;;;;
2021/11/18 00:15:25;;;;;;;10.1;8.049999;;;;;;;4.87;100;96257.62;;;;
2021/11/18 00:16:28;;;;;;;10.1;8.049999;;;;;;;4.87;100;96257.62;;;;
2021/11/18 00:17:29;;;;;;;10.1;8.049999;;;;;;;4.87;100;96257.62;;;;
2021/11/18 00:18:29;;;;;;;10.1;8.049999;;;;;;;4.87;100;96257.62;;;;
2021/11/18 00:19:32;;;;;;;10.1;8.049999;;;;;;;4.87;100;96257.62;;;;
2021/11/18 00:20:33;;;;;;;11.4;8.5;;;;;;;4.83;100;96255.39;;;;
2021/11/18 00:21:36;;;;;;;11.4;8.5;;;;;;;4.83;100;96255.39;;;;
2021/11/18 00:22:39;;;;;;;11.4;8.5;;;;;;;4.83;100;96255.39;;;;
2021/11/18 00:23:41;;;;;;;11.4;8.5;;;;;;;4.83;100;96255.39;;;;
2021/11/18 00:24:45;;;;;;;11.4;8.5;;;;;;;4.83;100;96255.39;;;;
2021/11/18 00:25:45;;;;;;;11.4;8.5;;;;;;;4.83;100;96255.39;;;;
2021/11/18 00:26:51;;;;;;;11.4;8.5;;;;;;;4.83;100;96255.39;;;;
2021/11/18 00:27:51;;;;;;;11.4;8.5;;;;;;;4.83;100;96255.39;;;;
2021/11/18 00:28:52;;;;;;;11.4;8.5;;;;;;;4.83;100;96255.39;;;;
2021/11/18 00:29:53;;;;;;;11.4;8.5;;;;;;;4.83;100;96255.39;;;;
2021/11/18 00:30:54;;;;;;;10.95;8.7;;;;;;;4.79;100;96254.49;;;;
2021/11/18 00:31:54;;;;;;;10.95;8.7;;;;;;;4.79;100;96254.49;;;;
2021/11/18 00:32:55;;;;;;;10.95;8.7;;;;;;;4.79;100;96254.49;;;;
2021/11/18 00:33:56;;;;;;;10.95;8.7;;;;;;;4.79;100;96254.49;;;;
2021/11/18 00:34:57;;;;;;;10.95;8.7;;;;;;;4.79;100;96254.49;;;;
2021/11/18 00:35:58;;;;;;;10.95;8.7;;;;;;;4.79;100;96254.49;;;;
2021/11/18 00:36:59;;;;;;;10.95;8.7;;;;;;;4.79;100;96254.49;;;;
2021/11/18 00:37:59;;;;;;;10.95;8.7;;;;;;;4.79;100;96254.49;;;;
2021/11/18 00:39:01;;;;;;;10.95;8.7;;;;;;;4.79;100;96254.49;;;;
2021/11/18 00:40:04;;;;;;;10.95;8.7;;;;;;;4.79;100;96254.49;;;;
2021/11/18 00:41:06;;;;;;;10.95;8.7;;;;;;;4.79;100;96254.49;;;;
2021/11/18 00:42:07;;;;;;;12.8;9.4;;;;;;;4.77;100;96252.91;;;;
2021/11/18 00:43:08;;;;;;;12.8;9.4;;;;;;;4.77;100;96252.91;;;;
2021/11/18 00:44:11;;;;;;;12.8;9.4;;;;;;;4.77;100;96252.91;;;;
2021/11/18 00:45:11;;;;;;;12.8;9.4;;;;;;;4.77;100;96252.91;;;;
2021/11/18 00:46:16;;;;;;;12.8;9.4;;;;;;;4.77;100;96252.91;;;;
2021/11/18 00:47:17;;;;;;;12.8;9.4;;;;;;;4.77;100;96252.91;;;;
2021/11/18 00:48:17;;;;;;;12.8;9.4;;;;;;;4.77;100;96252.91;;;;
2021/11/18 00:49:18;;;;;;;12.8;9.4;;;;;;;4.77;100;96252.91;;;;
2021/11/18 00:50:19;;;;;;;12.8;9.4;;;;;;;4.77;100;96252.91;;;;
2021/11/18 00:51:23;;;;;;;12.8;9.4;;;;;;;4.77;100;96252.91;;;;
2021/11/18 00:52:23;;;;;;;12.1;9.099998;;;;;;;4.74;100;96251.93;;;;
2021/11/18 00:53:24;;;;;;;12.1;9.099998;;;;;;;4.74;100;96251.93;;;;
2021/11/18 00:54:25;;;;;;;12.1;9.099998;;;;;;;4.74;100;96251.93;;;;
2021/11/18 00:55:26;;;;;;;12.1;9.099998;;;;;;;4.74;100;96251.93;;;;
2021/11/18 00:56:28;;;;;;;12.1;9.099998;;;;;;;4.74;100;96251.93;;;;
2021/11/18 00:57:29;;;;;;;12.1;9.099998;;;;;;;4.74;100;96251.93;;;;
2021/11/18 00:58:29;;;;;;;12.1;9.099998;;;;;;;4.74;100;96251.93;;;;
2021/11/18 00:59:30;;;;;;;12.1;9.099998;;;;;;;4.74;100;96251.93;;;;
2021/11/18 01:00:31;;;;;;;12.1;9.099998;;;;;;;4.74;100;96251.93;;;;
2021/11/18 01:01:41;;;;;;;12.1;9.099998;;;;;;;4.74;100;96251.93;;;;
2021/11/18 01:02:42;;;;;;;12.1;9.099998;;;;;;;4.74;100;96251.93;;;;
2021/11/18 01:03:43;;;;;;;12.25;9.749998;;;;;;;4.79;100;96262.02;;;;
2021/11/18 01:04:44;;;;;;;12.25;9.749998;;;;;;;4.79;100;96262.02;;;;
2021/11/18 01:05:45;;;;;;;12.25;9.749998;;;;;;;4.79;100;96262.02;;;;
2021/11/18 01:06:49;;;;;;;12.25;9.749998;;;;;;;4.79;100;96262.02;;;;
2021/11/18 01:07:50;;;;;;;12.25;9.749998;;;;;;;4.79;100;96262.02;;;;
2021/11/18 01:08:51;;;;;;;12.25;9.749998;;;;;;;4.79;100;96262.02;;;;
2021/11/18 01:09:51;;;;;;;12.25;9.749998;;;;;;;4.79;100;96262.02;;;;
2021/11/18 01:10:52;;;;;;;12.25;9.749998;;;;;;;4.79;100;96262.02;;;;
2021/11/18 01:11:57;;;;;;;12.25;9.749998;;;;;;;4.79;100;96262.02;;;;
2021/11/18 01:12:57;;;;;;;12.25;9.749998;;;;;;;4.79;100;96262.02;;;;
2021/11/18 01:13:58;;;;;;;12.75;9.499998;;;;;;;4.82;100;96261.77;;;;
2021/11/18 01:15:01;;;;;;;12.75;9.499998;;;;;;;4.82;100;96261.77;;;;
2021/11/18 01:16:04;;;;;;;12.75;9.499998;;;;;;;4.82;100;96261.77;;;;
2021/11/18 01:17:06;;;;;;;12.75;9.499998;;;;;;;4.82;100;96261.77;;;;
2021/11/18 01:18:08;;;;;;;12.75;9.499998;;;;;;;4.82;100;96261.77;;;;
2021/11/18 01:19:09;;;;;;;12.75;9.499998;;;;;;;4.82;100;96261.77;;;;
2021/11/18 01:20:10;;;;;;;12.75;9.499998;;;;;;;4.82;100;96261.77;;;;
2021/11/18 01:21:14;;;;;;;12.75;9.499998;;;;;;;4.82;100;96261.77;;;;
2021/11/18 01:22:16;;;;;;;12.75;9.499998;;;;;;;4.82;100;96261.77;;;;
2021/11/18 01:23:17;;;;;;;12.75;9.499998;;;;;;;4.82;100;96261.77;;;;
2021/11/18 01:24:20;;;;;;;11.3;9.050001;;;;;;;4.82;100;96255.98;;;;
2021/11/18 01:25:21;;;;;;;11.3;9.050001;;;;;;;4.82;100;96255.98;;;;
2021/11/18 01:26:22;;;;;;;11.3;9.050001;;;;;;;4.82;100;96255.98;;;;
2021/11/18 01:27:23;;;;;;;11.3;9.050001;;;;;;;4.82;100;96255.98;;;;
2021/11/18 01:28:23;;;;;;;11.3;9.050001;;;;;;;4.82;100;96255.98;;;;
2021/11/18 01:29:25;;;;;;;11.3;9.050001;;;;;;;4.82;100;96255.98;;;;
2021/11/18 01:30:26;;;;;;;11.3;9.050001;;;;;;;4.82;100;96255.98;;;;
2021/11/18 01:31:30;;;;;;;11.3;9.050001;;;;;;;4.82;100;96255.98;;;;
2021/11/18 01:32:32;;;;;;;11.3;9.050001;;;;;;;4.82;100;96255.98;;;;
2021/11/18 01:33:32;;;;;;;11.3;9.050001;;;;;;;4.82;100;96255.98;;;;
2021/11/18 01:34:34;;;;;;;11.3;9.050001;;;;;;;4.82;100;96255.98;;;;
2021/11/18 01:35:34;;;;;;;12.75;9.499999;;;;;;;4.71;100;96258.04;;;;
2021/11/18 01:36:35;;;;;;;12.75;9.499999;;;;;;;4.71;100;96258.04;;;;
2021/11/18 01:37:36;;;;;;;12.75;9.499999;;;;;;;4.71;100;96258.04;;;;
2021/11/18 01:38:37;;;;;;;12.75;9.499999;;;;;;;4.71;100;96258.04;;;;
2021/11/18 01:39:38;;;;;;;12.75;9.499999;;;;;;;4.71;100;96258.04;;;;
2021/11/18 01:40:39;;;;;;;12.75;9.499999;;;;;;;4.71;100;96258.04;;;;
2021/11/18 01:41:45;;;;;;;12.75;9.499999;;;;;;;4.71;100;96258.04;;;;
2021/11/18 01:42:46;;;;;;;12.75;9.499999;;;;;;;4.71;100;96258.04;;;;
2021/11/18 01:43:49;;;;;;;12.75;9.499999;;;;;;;4.71;100;96258.04;;;;
2021/11/18 01:44:52;;;;;;;12.75;9.499999;;;;;;;4.71;100;96258.04;;;;
2021/11/18 01:45:54;;;;;;;13.6;9.5;;;;;;;4.62;100;96257.75;;;;
2021/11/18 01:46:54;;;;;;;13.6;9.5;;;;;;;4.62;100;96257.75;;;;
2021/11/18 01:47:55;;;;;;;13.6;9.5;;;;;;;4.62;100;96257.75;;;;
2021/11/18 01:48:56;;;;;;;13.6;9.5;;;;;;;4.62;100;96257.75;;;;
2021/11/18 01:49:58;;;;;;;13.6;9.5;;;;;;;4.62;100;96257.75;;;;
2021/11/18 01:50:58;;;;;;;13.6;9.5;;;;;;;4.62;100;96257.75;;;;
2021/11/18 01:51:59;;;;;;;13.6;9.5;;;;;;;4.62;100;96257.75;;;;
2021/11/18 01:53:04;;;;;;;13.6;9.5;;;;;;;4.62;100;96257.75;;;;
2021/11/18 01:54:09;;;;;;;13.6;9.5;;;;;;;4.62;100;96257.75;;;;
2021/11/18 01:55:12;;;;;;;13.6;9.5;;;;;;;4.62;100;96257.75;;;;
2021/11/18 01:56:16;;;;;;;12.95;9.549999;;;;;;;4.58;100;96276.59;;;;
2021/11/18 01:57:20;;;;;;;12.95;9.549999;;;;;;;4.58;100;96276.59;;;;
2021/11/18 01:58:23;;;;;;;12.95;9.549999;;;;;;;4.58;100;96276.59;;;;
2021/11/18 01:59:24;;;;;;;12.95;9.549999;;;;;;;4.58;100;96276.59;;;;
2021/11/18 02:00:28;;;;;;;12.95;9.549999;;;;;;;4.58;100;96276.59;;;;
2021/11/18 02:01:31;;;;;;;12.95;9.549999;;;;;;;4.58;100;96276.59;;;;
2021/11/18 02:02:32;;;;;;;12.95;9.549999;;;;;;;4.58;100;96276.59;;;;
2021/11/18 02:03:33;;;;;;;12.95;9.549999;;;;;;;4.58;100;96276.59;;;;
2021/11/18 02:04:33;;;;;;;12.95;9.549999;;;;;;;4.58;100;96276.59;;;;
2021/11/18 02:05:47;;;;;;;12.95;9.549999;;;;;;;4.58;100;96276.59;;;;
2021/11/18 02:06:52;;;;;;;12.95;9.549999;;;;;;;4.58;100;96276.59;;;;
2021/11/18 02:07:55;;;;;;;12.3;9.549999;;;;;;;4.56;100;96263.4;;;;
2021/11/18 02:08:57;;;;;;;12.3;9.549999;;;;;;;4.56;100;96263.4;;;;
2021/11/18 02:09:58;;;;;;;12.3;9.549999;;;;;;;4.56;100;96263.4;;;;
2021/11/18 02:11:01;;;;;;;12.3;9.549999;;;;;;;4.56;100;96263.4;;;;
2021/11/18 02:12:04;;;;;;;12.3;9.549999;;;;;;;4.56;100;96263.4;;;;
2021/11/18 02:13:08;;;;;;;12.3;9.549999;;;;;;;4.56;100;96263.4;;;;
2021/11/18 02:14:11;;;;;;;12.3;9.549999;;;;;;;4.56;100;96263.4;;;;
2021/11/18 02:15:14;;;;;;;12.3;9.549999;;;;;;;4.56;100;96263.4;;;;
2021/11/18 02:16:20;;;;;;;12.3;9.549999;;;;;;;4.56;100;96263.4;;;;
2021/11/18 02:17:22;;;;;;;12.3;9.549999;;;;;;;4.56;100;96263.4;;;;
2021/11/18 02:18:26;;;;;;;12.2;9.5;;;;;;;4.63;100;96273.32;;;;
2021/11/18 02:19:29;;;;;;;12.2;9.5;;;;;;;4.63;100;96273.32;;;;
2021/11/18 02:20:37;;;;;;;12.2;9.5;;;;;;;4.63;100;96273.32;;;;
2021/11/18 02:21:37;;;;;;;12.2;9.5;;;;;;;4.63;100;96273.32;;;;
2021/11/18 02:22:39;;;;;;;12.2;9.5;;;;;;;4.63;100;96273.32;;;;
2021/11/18 02:23:40;;;;;;;12.2;9.5;;;;;;;4.63;100;96273.32;;;;
2021/11/18 02:24:43;;;;;;;12.2;9.5;;;;;;;4.63;100;96273.32;;;;
2021/11/18 02:25:47;;;;;;;12.2;9.5;;;;;;;4.63;100;96273.32;;;;
2021/11/18 02:26:49;;;;;;;12.2;9.5;;;;;;;4.63;100;96273.32;;;;
2021/11/18 02:27:50;;;;;;;12.2;9.5;;;;;;;4.63;100;96273.32;;;;
2021/11/18 02:28:51;;;;;;;12.9;9.150002;;;;;;;4.67;100;96255.49;;;;
2021/11/18 02:29:55;;;;;;;12.9;9.150002;;;;;;;4.67;100;96255.49;;;;
2021/11/18 02:30:58;;;;;;;12.9;9.150002;;;;;;;4.67;100;96255.49;;;;
2021/11/18 02:32:01;;;;;;;12.9;9.150002;;;;;;;4.67;100;96255.49;;;;
2021/11/18 02:33:07;;;;;;;12.9;9.150002;;;;;;;4.67;100;96255.49;;;;
2021/11/18 02:34:09;;;;;;;12.9;9.150002;;;;;;;4.67;100;96255.49;;;;
2021/11/18 02:35:13;;;;;;;12.9;9.150002;;;;;;;4.67;100;96255.49;;;;
2021/11/18 02:36:16;;;;;;;12.9;9.150002;;;;;;;4.67;100;96255.49;;;;
2021/11/18 02:37:17;;;;;;;12.9;9.150002;;;;;;;4.67;100;96255.49;;;;
2021/11/18 02:38:18;;;;;;;12.9;9.150002;;;;;;;4.67;100;96255.49;;;;
2021/11/18 02:39:19;;;;;;;12.15;9.249998;;;;;;;4.68;100;96242.85;;;;
2021/11/18 02:40:20;;;;;;;12.15;9.249998;;;;;;;4.68;100;96242.85;;;;
2021/11/18 02:41:23;;;;;;;12.15;9.249998;;;;;;;4.68;100;96242.85;;;;
2021/11/18 02:42:24;;;;;;;12.15;9.249998;;;;;;;4.68;100;96242.85;;;;
2021/11/18 02:43:27;;;;;;;12.15;9.249998;;;;;;;4.68;100;96242.85;;;;
2021/11/18 02:44:29;;;;;;;12.15;9.249998;;;;;;;4.68;100;96242.85;;;;
2021/11/18 02:45:30;;;;;;;12.15;9.249998;;;;;;;4.68;100;96242.85;;;;
2021/11/18 02:46:36;;;;;;;12.15;9.249998;;;;;;;4.68;100;96242.85;;;;
2021/11/18 02:47:37;;;;;;;12.15;9.249998;;;;;;;4.68;100;96242.85;;;;
2021/11/18 02:48:38;;;;;;;12.15;9.249998;;;;;;;4.68;100;96242.85;;;;
2021/11/18 02:49:41;;;;;;;12.85;9.6;;;;;;;4.66;100;96256.9;;;;
2021/11/18 02:50:44;;;;;;;12.85;9.6;;;;;;;4.66;100;96256.9;;;;
2021/11/18 02:51:48;;;;;;;12.85;9.6;;;;;;;4.66;100;96256.9;;;;
2021/11/18 02:52:49;;;;;;;12.85;9.6;;;;;;;4.66;100;96256.9;;;;
2021/11/18 02:53:50;;;;;;;12.85;9.6;;;;;;;4.66;100;96256.9;;;;
2021/11/18 02:54:51;;;;;;;12.85;9.6;;;;;;;4.66;100;96256.9;;;;
2021/11/18 02:55:52;;;;;;;12.85;9.6;;;;;;;4.66;100;96256.9;;;;
2021/11/18 02:56:55;;;;;;;12.85;9.6;;;;;;;4.66;100;96256.9;;;;
2021/11/18 02:57:56;;;;;;;12.85;9.6;;;;;;;4.66;100;96256.9;;;;
2021/11/18 02:58:57;;;;;;;12.85;9.6;;;;;;;4.66;100;96256.9;;;;
2021/11/18 02:59:57;;;;;;;12.85;9.6;;;;;;;4.66;100;96256.9;;;;
2021/11/18 03:00:58;;;;;;;12.4;9;;;;;;;4.64;100;96263.87;;;;
2021/11/18 03:02:05;;;;;;;12.4;9;;;;;;;4.64;100;96263.87;;;;
2021/11/18 03:03:08;;;;;;;12.4;9;;;;;;;4.64;100;96263.87;;;;
2021/11/18 03:04:09;;;;;;;12.4;9;;;;;;;4.64;100;96263.87;;;;
2021/11/18 03:05:10;;;;;;;12.4;9;;;;;;;4.64;100;96263.87;;;;
2021/11/18 03:06:11;;;;;;;12.4;9;;;;;;;4.64;100;96263.87;;;;
2021/11/18 03:07:12;;;;;;;12.4;9;;;;;;;4.64;100;96263.87;;;;
2021/11/18 03:08:13;;;;;;;12.4;9;;;;;;;4.64;100;96263.87;;;;
2021/11/18 03:09:14;;;;;;;12.4;9;;;;;;;4.64;100;96263.87;;;;
2021/11/18 03:10:15;;;;;;;12.4;9;;;;;;;4.64;100;96263.87;;;;
2021/11/18 03:11:19;;;;;;;13.25;9.050001;;;;;;;4.63;100;96261.27;;;;
2021/11/18 03:12:22;;;;;;;13.25;9.050001;;;;;;;4.63;100;96261.27;;;;
2021/11/18 03:13:23;;;;;;;13.25;9.050001;;;;;;;4.63;100;96261.27;;;;
2021/11/18 03:14:26;;;;;;;13.25;9.050001;;;;;;;4.63;100;96261.27;;;;
2021/11/18 03:15:28;;;;;;;13.25;9.050001;;;;;;;4.63;100;96261.27;;;;
2021/11/18 03:16:28;;;;;;;13.25;9.050001;;;;;;;4.63;100;96261.27;;;;
2021/11/18 03:17:29;;;;;;;13.25;9.050001;;;;;;;4.63;100;96261.27;;;;
2021/11/18 03:18:30;;;;;;;13.25;9.050001;;;;;;;4.63;100;96261.27;;;;
2021/11/18 03:19:31;;;;;;;13.25;9.050001;;;;;;;4.63;100;96261.27;;;;
2021/11/18 03:20:31;;;;;;;13.25;9.050001;;;;;;;4.63;100;96261.27;;;;
2021/11/18 03:21:32;;;;;;;13.25;9.050001;;;;;;;4.63;100;96261.27;;;;
2021/11/18 03:22:33;;;;;;;12.65;9.150002;;;;;;;4.64;100;96270.56;;;;
2021/11/18 03:23:33;;;;;;;12.65;9.150002;;;;;;;4.64;100;96270.56;;;;
2021/11/18 03:24:35;;;;;;;12.65;9.150002;;;;;;;4.64;100;96270.56;;;;
2021/11/18 03:25:36;;;;;;;12.65;9.150002;;;;;;;4.64;100;96270.56;;;;
2021/11/18 03:26:38;;;;;;;12.65;9.150002;;;;;;;4.64;100;96270.56;;;;
2021/11/18 03:27:38;;;;;;;12.65;9.150002;;;;;;;4.64;100;96270.56;;;;
2021/11/18 03:28:39;;;;;;;12.65;9.150002;;;;;;;4.64;100;96270.56;;;;
2021/11/18 03:29:40;;;;;;;12.65;9.150002;;;;;;;4.64;100;96270.56;;;;
2021/11/18 03:30:41;;;;;;;12.65;9.150002;;;;;;;4.64;100;96270.56;;;;
2021/11/18 03:31:44;;;;;;;12.65;9.150002;;;;;;;4.64;100;96270.56;;;;
2021/11/18 03:32:45;;;;;;;13.1;9.1;;;;;;;4.66;100;96293.01;;;;
2021/11/18 03:33:45;;;;;;;13.1;9.1;;;;;;;4.66;100;96293.01;;;;
2021/11/18 03:34:48;;;;;;;13.1;9.1;;;;;;;4.66;100;96293.01;;;;
2021/11/18 03:35:49;;;;;;;13.1;9.1;;;;;;;4.66;100;96293.01;;;;
2021/11/18 03:36:51;;;;;;;13.1;9.1;;;;;;;4.66;100;96293.01;;;;
2021/11/18 03:37:51;;;;;;;13.1;9.1;;;;;;;4.66;100;96293.01;;;;
2021/11/18 03:38:53;;;;;;;13.1;9.1;;;;;;;4.66;100;96293.01;;;;
2021/11/18 03:39:55;;;;;;;13.1;9.1;;;;;;;4.66;100;96293.01;;;;
2021/11/18 03:41:03;;;;;;;13.1;9.1;;;;;;;4.66;100;96293.01;;;;
2021/11/18 03:42:06;;;;;;;13.1;9.1;;;;;;;4.66;100;96293.01;;;;
2021/11/18 03:43:10;;;;;;;12.8;9.5;;;;;;;4.67;100;96304.47;;;;
2021/11/18 03:44:11;;;;;;;12.8;9.5;;;;;;;4.67;100;96304.47;;;;
2021/11/18 03:45:14;;;;;;;12.8;9.5;;;;;;;4.67;100;96304.47;;;;
2021/11/18 03:46:17;;;;;;;12.8;9.5;;;;;;;4.67;100;96304.47;;;;
2021/11/18 03:47:20;;;;;;;12.8;9.5;;;;;;;4.67;100;96304.47;;;;
2021/11/18 03:48:20;;;;;;;12.8;9.5;;;;;;;4.67;100;96304.47;;;;
2021/11/18 03:49:20;;;;;;;12.8;9.5;;;;;;;4.67;100;96304.47;;;;
2021/11/18 03:50:22;;;;;;;12.8;9.5;;;;;;;4.67;100;96304.47;;;;
2021/11/18 03:51:23;;;;;;;12.8;9.5;;;;;;;4.67;100;96304.47;;;;
2021/11/18 03:52:26;;;;;;;12.8;9.5;;;;;;;4.67;100;96304.47;;;;
2021/11/18 03:53:26;;;;;;;12.8;9.5;;;;;;;4.67;100;96304.47;;;;
2021/11/18 03:54:28;;;;;;;12.65;9;;;;;;;4.68;100;96307.89;;;;
2021/11/18 03:55:31;;;;;;;12.65;9;;;;;;;4.68;100;96307.89;;;;
2021/11/18 03:56:34;;;;;;;12.65;9;;;;;;;4.68;100;96307.89;;;;
2021/11/18 03:57:36;;;;;;;12.65;9;;;;;;;4.68;100;96307.89;;;;
2021/11/18 03:58:37;;;;;;;12.65;9;;;;;;;4.68;100;96307.89;;;;
2021/11/18 03:59:38;;;;;;;12.65;9;;;;;;;4.68;100;96307.89;;;;
2021/11/18 04:00:42;;;;;;;12.65;9;;;;;;;4.68;100;96307.89;;;;
2021/11/18 04:01:42;;;;;;;12.65;9;;;;;;;4.68;100;96307.89;;;;
2021/11/18 04:02:45;;;;;;;12.65;9;;;;;;;4.68;100;96307.89;;;;
2021/11/18 04:03:46;;;;;;;12.65;9;;;;;;;4.68;100;96307.89;;;;
2021/11/18 04:04:46;;;;;;;14;10.1;;;;;;;4.72;100;96314.56;;;;
2021/11/18 04:05:50;;;;;;;14;10.1;;;;;;;4.72;100;96314.56;;;;
2021/11/18 04:06:50;;;;;;;14;10.1;;;;;;;4.72;100;96314.56;;;;
2021/11/18 04:07:51;;;;;;;14;10.1;;;;;;;4.72;100;96314.56;;;;
2021/11/18 04:08:52;;;;;;;14;10.1;;;;;;;4.72;100;96314.56;;;;
2021/11/18 04:09:52;;;;;;;14;10.1;;;;;;;4.72;100;96314.56;;;;
2021/11/18 04:10:54;;;;;;;14;10.1;;;;;;;4.72;100;96314.56;;;;
2021/11/18 04:11:55;;;;;;;14;10.1;;;;;;;4.72;100;96314.56;;;;
2021/11/18 04:12:56;;;;;;;14;10.1;;;;;;;4.72;100;96314.56;;;;
2021/11/18 04:13:57;;;;;;;14;10.1;;;;;;;4.72;100;96314.56;;;;
2021/11/18 04:14:59;;;;;;;13.1;9.650001;;;;;;;4.74;100;96317.89;;;;
2021/11/18 04:15:59;;;;;;;13.1;9.650001;;;;;;;4.74;100;96317.89;;;;
2021/11/18 04:17:00;;;;;;;13.1;9.650001;;;;;;;4.74;100;96317.89;;;;
2021/11/18 04:18:00;;;;;;;13.1;9.650001;;;;;;;4.74;100;96317.89;;;;
2021/11/18 04:19:02;;;;;;;13.1;9.650001;;;;;;;4.74;100;96317.89;;;;
2021/11/18 04:20:03;;;;;;;13.1;9.650001;;;;;;;4.74;100;96317.89;;;;
2021/11/18 04:21:06;;;;;;;13.1;9.650001;;;;;;;4.74;100;96317.89;;;;
2021/11/18 04:22:06;;;;;;;13.1;9.650001;;;;;;;4.74;100;96317.89;;;;
2021/11/18 04:23:08;;;;;;;13.1;9.650001;;;;;;;4.74;100;96317.89;;;;
2021/11/18 04:24:08;;;;;;;13.1;9.650001;;;;;;;4.74;100;96317.89;;;;
2021/11/18 04:25:14;;;;;;;13.1;9.650001;;;;;;;4.74;100;96317.89;;;;
2021/11/18 04:26:18;;;;;;;13.35;10.25;;;;;;;4.75;100;96303.5;;;;
2021/11/18 04:27:18;;;;;;;13.35;10.25;;;;;;;4.75;100;96303.5;;;;
2021/11/18 04:28:19;;;;;;;13.35;10.25;;;;;;;4.75;100;96303.5;;;;
2021/11/18 04:29:27;;;;;;;13.35;10.25;;;;;;;4.75;100;96303.5;;;;
2021/11/18 04:30:28;;;;;;;13.35;10.25;;;;;;;4.75;100;96303.5;;;;
2021/11/18 04:31:33;;;;;;;13.35;10.25;;;;;;;4.75;100;96303.5;;;;
2021/11/18 04:32:34;;;;;;;13.35;10.25;;;;;;;4.75;100;96303.5;;;;
2021/11/18 04:33:34;;;;;;;13.35;10.25;;;;;;;4.75;100;96303.5;;;;
2021/11/18 04:34:36;;;;;;;13.35;10.25;;;;;;;4.75;100;96303.5;;;;
2021/11/18 04:35:38;;;;;;;13.35;10.25;;;;;;;4.75;100;96303.5;;;;
2021/11/18 04:36:39;;;;;;;13.8;9.85;;;;;;;4.77;100;96323.8;;;;
2021/11/18 04:37:39;;;;;;;13.8;9.85;;;;;;;4.77;100;96323.8;;;;
2021/11/18 04:38:40;;;;;;;13.8;9.85;;;;;;;4.77;100;96323.8;;;;
2021/11/18 04:39:42;;;;;;;13.8;9.85;;;;;;;4.77;100;96323.8;;;;
2021/11/18 04:40:43;;;;;;;13.8;9.85;;;;;;;4.77;100;96323.8;;;;
2021/11/18 04:41:44;;;;;;;13.8;9.85;;;;;;;4.77;100;96323.8;;;;
2021/11/18 04:42:45;;;;;;;13.8;9.85;;;;;;;4.77;100;96323.8;;;;
2021/11/18 04:43:46;;;;;;;13.8;9.85;;;;;;;4.77;100;96323.8;;;;
2021/11/18 04:44:47;;;;;;;13.8;9.85;;;;;;;4.77;100;96323.8;;;;
2021/11/18 04:45:48;;;;;;;13.8;9.85;;;;;;;4.77;100;96323.8;;;;
2021/11/18 04:46:49;;;;;;;13.8;9.85;;;;;;;4.77;100;96323.8;;;;
2021/11/18 04:47:50;;;;;;;13.85;10.4;;;;;;;4.72;100;96335.12;;;;
2021/11/18 04:48:50;;;;;;;13.85;10.4;;;;;;;4.72;100;96335.12;;;;
2021/11/18 04:49:51;;;;;;;13.85;10.4;;;;;;;4.72;100;96335.12;;;;
2021/11/18 04:50:51;;;;;;;13.85;10.4;;;;;;;4.72;100;96335.12;;;;
2021/11/18 04:51:52;;;;;;;13.85;10.4;;;;;;;4.72;100;96335.12;;;;
2021/11/18 04:52:53;;;;;;;13.85;10.4;;;;;;;4.72;100;96335.12;;;;
2021/11/18 04:53:54;;;;;;;13.85;10.4;;;;;;;4.72;100;96335.12;;;;
2021/11/18 04:54:55;;;;;;;13.85;10.4;;;;;;;4.72;100;96335.12;;;;
2021/11/18 04:55:56;;;;;;;13.85;10.4;;;;;;;4.72;100;96335.12;;;;
2021/11/18 04:56:57;;;;;;;13.85;10.4;;;;;;;4.72;100;96335.12;;;;
2021/11/18 04:57:57;;;;;;;13.4;9.7;;;;;;;4.72;100;96339.97;;;;
2021/11/18 04:58:58;;;;;;;13.4;9.7;;;;;;;4.72;100;96339.97;;;;
2021/11/18 04:59:59;;;;;;;13.4;9.7;;;;;;;4.72;100;96339.97;;;;
2021/11/18 05:00:59;;;;;;;13.4;9.7;;;;;;;4.72;100;96339.97;;;;
2021/11/18 05:02:00;;;;;;;13.4;9.7;;;;;;;4.72;100;96339.97;;;;
2021/11/18 05:03:01;;;;;;;13.4;9.7;;;;;;;4.72;100;96339.97;;;;
2021/11/18 05:04:02;;;;;;;13.4;9.7;;;;;;;4.72;100;96339.97;;;;
2021/11/18 05:05:03;;;;;;;13.4;9.7;;;;;;;4.72;100;96339.97;;;;
2021/11/18 05:06:05;;;;;;;13.4;9.7;;;;;;;4.72;100;96339.97;;;;
2021/11/18 05:07:06;;;;;;;13.4;9.7;;;;;;;4.72;100;96339.97;;;;
2021/11/18 05:08:07;;;;;;;13.4;9.7;;;;;;;4.72;100;96339.97;;;;
2021/11/18 05:09:08;;;;;;;13.3;9.75;;;;;;;4.73;100;96347.08;;;;
2021/11/18 05:10:10;;;;;;;13.3;9.75;;;;;;;4.73;100;96347.08;;;;
2021/11/18 05:11:12;;;;;;;13.3;9.75;;;;;;;4.73;100;96347.08;;;;
2021/11/18 05:12:12;;;;;;;13.3;9.75;;;;;;;4.73;100;96347.08;;;;
2021/11/18 05:13:14;;;;;;;13.3;9.75;;;;;;;4.73;100;96347.08;;;;
2021/11/18 05:14:18;;;;;;;13.3;9.75;;;;;;;4.73;100;96347.08;;;;
2021/11/18 05:15:18;;;;;;;13.3;9.75;;;;;;;4.73;100;96347.08;;;;
2021/11/18 05:16:21;;;;;;;13.3;9.75;;;;;;;4.73;100;96347.08;;;;
2021/11/18 05:17:22;;;;;;;13.3;9.75;;;;;;;4.73;100;96347.08;;;;
2021/11/18 05:18:22;;;;;;;13.3;9.75;;;;;;;4.73;100;96347.08;;;;
2021/11/18 05:19:25;;;;;;;14.4;10.1;;;;;;;4.73;100;96357.78;;;;
2021/11/18 05:20:26;;;;;;;14.4;10.1;;;;;;;4.73;100;96357.78;;;;
2021/11/18 05:21:29;;;;;;;14.4;10.1;;;;;;;4.73;100;96357.78;;;;
2021/11/18 05:22:29;;;;;;;14.4;10.1;;;;;;;4.73;100;96357.78;;;;
2021/11/18 05:23:30;;;;;;;14.4;10.1;;;;;;;4.73;100;96357.78;;;;
2021/11/18 05:24:31;;;;;;;14.4;10.1;;;;;;;4.73;100;96357.78;;;;
2021/11/18 05:25:31;;;;;;;14.4;10.1;;;;;;;4.73;100;96357.78;;;;
2021/11/18 05:26:32;;;;;;;14.4;10.1;;;;;;;4.73;100;96357.78;;;;
2021/11/18 05:27:33;;;;;;;14.4;10.1;;;;;;;4.73;100;96357.78;;;;
2021/11/18 05:28:34;;;;;;;14.4;10.1;;;;;;;4.73;100;96357.78;;;;
2021/11/18 05:29:35;;;;;;;14.4;10.1;;;;;;;4.73;100;96357.78;;;;
2021/11/18 05:30:35;;;;;;;16.05;10.7;;;;;;;4.72;100;96365.88;;;;
2021/11/18 05:31:36;;;;;;;16.05;10.7;;;;;;;4.72;100;96365.88;;;;
2021/11/18 05:32:37;;;;;;;16.05;10.7;;;;;;;4.72;100;96365.88;;;;
2021/11/18 05:33:38;;;;;;;16.05;10.7;;;;;;;4.72;100;96365.88;;;;
2021/11/18 05:34:40;;;;;;;16.05;10.7;;;;;;;4.72;100;96365.88;;;;
2021/11/18 05:35:41;;;;;;;16.05;10.7;;;;;;;4.72;100;96365.88;;;;
2021/11/18 05:36:44;;;;;;;16.05;10.7;;;;;;;4.72;100;96365.88;;;;
2021/11/18 05:37:45;;;;;;;16.05;10.7;;;;;;;4.72;100;96365.88;;;;
2021/11/18 05:38:45;;;;;;;16.05;10.7;;;;;;;4.72;100;96365.88;;;;
2021/11/18 05:39:47;;;;;;;16.05;10.7;;;;;;;4.72;100;96365.88;;;;
2021/11/18 05:40:47;;;;;;;14.3;9.749998;;;;;;;4.67;100;96371.84;;;;
2021/11/18 05:41:50;;;;;;;14.3;9.749998;;;;;;;4.67;100;96371.84;;;;
2021/11/18 05:42:50;;;;;;;14.3;9.749998;;;;;;;4.67;100;96371.84;;;;
2021/11/18 05:43:52;;;;;;;14.3;9.749998;;;;;;;4.67;100;96371.84;;;;
2021/11/18 05:44:52;;;;;;;14.3;9.749998;;;;;;;4.67;100;96371.84;;;;
2021/11/18 05:45:53;;;;;;;14.3;9.749998;;;;;;;4.67;100;96371.84;;;;
2021/11/18 05:46:54;;;;;;;14.3;9.749998;;;;;;;4.67;100;96371.84;;;;
2021/11/18 05:47:55;;;;;;;14.3;9.749998;;;;;;;4.67;100;96371.84;;;;
2021/11/18 05:48:55;;;;;;;14.3;9.749998;;;;;;;4.67;100;96371.84;;;;
2021/11/18 05:49:56;;;;;;;14.3;9.749998;;;;;;;4.67;100;96371.84;;;;
2021/11/18 05:50:56;;;;;;;13.85;10.3;;;;;;;4.68;100;96400.17;;;;
2021/11/18 05:51:59;;;;;;;13.85;10.3;;;;;;;4.68;100;96400.17;;;;
2021/11/18 05:52:59;;;;;;;13.85;10.3;;;;;;;4.68;100;96400.17;;;;
2021/11/18 05:54:00;;;;;;;13.85;10.3;;;;;;;4.68;100;96400.17;;;;
2021/11/18 05:55:01;;;;;;;13.85;10.3;;;;;;;4.68;100;96400.17;;;;
2021/11/18 05:56:04;;;;;;;13.85;10.3;;;;;;;4.68;100;96400.17;;;;
2021/11/18 05:57:07;;;;;;;13.85;10.3;;;;;;;4.68;100;96400.17;;;;
2021/11/18 05:58:08;;;;;;;13.85;10.3;;;;;;;4.68;100;96400.17;;;;
2021/11/18 05:59:08;;;;;;;13.85;10.3;;;;;;;4.68;100;96400.17;;;;
2021/11/18 06:00:10;;;;;;;13.85;10.3;;;;;;;4.68;100;96400.17;;;;
2021/11/18 06:01:14;;;;;;;13.85;10.3;;;;;;;4.68;100;96400.17;;;;
2021/11/18 06:02:17;;;;;;;13.8;9.950001;;;;;;;4.7;100;96372.82;;;;
2021/11/18 06:03:18;;;;;;;13.8;9.950001;;;;;;;4.7;100;96372.82;;;;
2021/11/18 06:04:19;;;;;;;13.8;9.950001;;;;;;;4.7;100;96372.82;;;;
2021/11/18 06:05:19;;;;;;;13.8;9.950001;;;;;;;4.7;100;96372.82;;;;
2021/11/18 06:06:22;;;;;;;13.8;9.950001;;;;;;;4.7;100;96372.82;;;;
2021/11/18 06:07:23;;;;;;;13.8;9.950001;;;;;;;4.7;100;96372.82;;;;
2021/11/18 06:08:23;;;;;;;13.8;9.950001;;;;;;;4.7;100;96372.82;;;;
2021/11/18 06:09:24;;;;;;;13.8;9.950001;;;;;;;4.7;100;96372.82;;;;
2021/11/18 06:10:24;;;;;;;13.8;9.950001;;;;;;;4.7;100;96372.82;;;;
2021/11/18 06:11:27;;;;;;;13.8;9.950001;;;;;;;4.7;100;96372.82;;;;